Terminal Aerodrome Forecast
Issued by NWS Cleveland, OH

Home | Current Version | Previous Version | Graphics & Text | Print | Product List | Glossary On
Versions: 1 2 3 4 5 6 7 8 9 10 11 12 13 14 15 16 17 18 19 20
000
FTUS41 KCLE 262100 CCA
TAFTOL
TAF COR
KTOL 262101Z 2621/2718 27012G18KT P6SM VCSH SCT050 BKN200
      TEMPO 2622/2701 27020G35KT 2SM TSRA BR OVC035CB
     FM270100 27006KT P6SM BKN120 OVC250
     FM270600 35006KT P6SM SCT020 BKN250
     FM271100 02006KT P6SM BKN250=

USA.gov is the U.S. government's official web portal to all federal, state and local government web resources and services.